Alford, Indiana
Current Conditions -  °F | °C
As of 11:15 AM on Friday 19 Dec 2014 (Local Time) from KDCY Reporting Station
Scattered Clouds Scattered Clouds  
Wind Chill: 31°   Ceiling: Unl
Heat Index: 31°   Visibility: 10mi
Dew Point: 21°   Wind: 0mph
Humidity: 67%   Direction: NA
Pressure: 30.3"   Gusts: NA
Location:  38.4723°N, 87.3105°W
Report Text: KDCY 191715Z AUTO 00000KT 10SM SCT021 M01/M06 A3030 RMK AO2 T10061060
Loading
Personal Weather Stations






























Interactive Weather Map New forecast layout! Learn more

10-Day Weather Forecast

Advertisements
Track Severe Weather on mobile